Flight Track Log - Related Links

Times and Time Zones

All times are in EDT time to prevent confusion due to time zone crossing. See the UAL582 flight status page for this flight to view local times or setup timezone preferences in your user account.

Time Position Orientation Groundspeed Altitude Reporting Facility
EDT Latitude Longitude Course Direction KTS MPH feet Rate Location/Type
Thu 08:00:15 PM 41.9333 -87.9167 180° South 170 196 2,100  Level Chicago TRACON
Thu 08:01:09 PM 41.9000 -87.9167 180° South 159 183 4,100 2,053 Climbing Chicago TRACON
Thu 08:02:09 PM 41.8333 -87.9167 180° South 254 292 6,000 2,067 Climbing Chicago TRACON
Thu 08:02:39 PM 41.8128 -87.9108 168° South 236 272 7,200 3,326 Climbing Chicago Center
Thu 08:03:41 PM 41.7242 -87.9031 176° South 266 306 11,100 3,024 Climbing Chicago Center
Thu 08:04:44 PM 41.6442 -87.8972 177° South 286 329 13,500 2,304 Climbing Chicago Center
Thu 08:05:46 PM 41.5542 -87.8892 176° South 320 368 15,900 2,419 Climbing Chicago Center
Thu 08:06:48 PM 41.4592 -87.8825 177° South 335 386 18,500 2,226 Climbing Chicago Center
Thu 08:07:50 PM 41.3606 -87.8811 179° South 349 402 20,500 1,694 Climbing Chicago Center
Thu 08:08:52 PM 41.2569 -87.8931 185° South 366 421 22,000 1,500 Climbing Chicago Center
Thu 08:09:54 PM 41.1475 -87.8894 179° South 386 444 23,600 1,548 Climbing Chicago Center
Thu 08:10:56 PM 41.0122 -87.8858 179° South 402 463 25,200 1,113 Climbing Chicago Center
Thu 08:11:58 PM 40.8922 -87.8800 178° South 428 493 25,900 1,210 Climbing Chicago Center
Thu 08:13:00 PM 40.7672 -87.8767 179° South 446 513 27,700 1,548 Climbing Chicago Center
Thu 08:14:02 PM 40.6433 -87.8719 178° South 447 514 29,100 1,104 Climbing Chicago Center
Thu 08:15:05 PM 40.5222 -87.8981 189° South 442 509 30,000 432 Climbing Chicago Center
Thu 08:16:07 PM 40.4008 -87.9375 194° South 448 516 30,000  Level Chicago Center
Thu 08:17:09 PM 40.2625 -87.9864 195° South 437 503 30,000 97 Level Chicago Center
Thu 08:18:11 PM 40.1542 -88.0214 194° South 434 499 30,200 919 Climbing Chicago Center
Thu 08:19:13 PM 40.0394 -88.0625 195° South 431 496 31,900 1,355 Climbing Chicago Center
Thu 08:20:15 PM 39.9039 -88.1117 196° South 425 489 33,000 600 Climbing Chicago Center
Thu 08:21:03 PM 39.8114 -88.0981 174° South 425 489 33,000 385 Level Indianapolis Center
Thu 08:22:04 PM 39.7008 -88.0542 163° South 420 483 33,700 976 Climbing Indianapolis Center
Thu 08:23:06 PM 39.5869 -88.0083 163° South 426 490 35,000 634 Climbing Indianapolis Center
Thu 08:24:07 PM 39.4753 -87.9642 163° South 423 487 35,000  Level Indianapolis Center
Thu 08:25:09 PM 39.3647 -87.9181 162° South 423 487 35,000  Level Indianapolis Center
Thu 08:26:10 PM 39.2506 -87.8719 163° South 426 490 35,000  Level Indianapolis Center
Thu 08:27:12 PM 39.1369 -87.8272 163° South 426 490 35,000 -49 Level Indianapolis Center
Thu 08:28:13 PM 39.0211 -87.7825 163° South 432 497 34,900  Descending Indianapolis Center
Thu 08:29:15 PM 38.8797 -87.7264 163° South 441 507 35,000 49 Climbing Indianapolis Center
Thu 08:30:16 PM 38.7614 -87.6800 163° South 445 512 35,000  Level Indianapolis Center
Thu 08:31:18 PM 38.6417 -87.6322 163° South 448 516 35,000  Level Indianapolis Center
Thu 08:32:19 PM 38.5208 -87.5850 163° South 453 521 35,000 -293 Level Indianapolis Center
Thu 08:33:21 PM 38.3992 -87.5381 163° South 457 526 34,400 -1,268 Descending Indianapolis Center
Thu 08:34:22 PM 38.2811 -87.4922 163° South 449 517 32,400 -2,195 Descending Indianapolis Center
Thu 08:35:24 PM 38.1656 -87.4475 163° South 438 504 29,900 -2,634 Descending Indianapolis Center
Thu 08:36:25 PM 38.0311 -87.3942 163° South 426 490 27,000 -2,244 Descending Indianapolis Center
Thu 08:37:27 PM 37.9239 -87.3536 163° South 407 468 25,300 -976 Descending Indianapolis Center
Thu 08:38:28 PM 37.8183 -87.3136 163° South 397 457 25,000 -146 Descending Indianapolis Center
Thu 08:39:30 PM 37.7142 -87.2736 163° South 395 455 25,000  Level Indianapolis Center
Thu 08:40:31 PM 37.6081 -87.2328 163° South 394 453 25,000  Level Indianapolis Center
Thu 08:41:08 PM 37.5333 -87.2058 164° South 398 458 25,000  Level Memphis Center
Thu 08:42:08 PM 37.4283 -87.1656 163° South 398 458 25,000  Level Memphis Center
Thu 08:43:09 PM 37.3253 -87.1253 163° South 403 464 25,000  Level Memphis Center
Thu 08:44:08 PM 37.2158 -87.0856 164° South 403 464 25,000  Level Memphis Center
Thu 08:45:08 PM 37.1106 -87.0456 163° South 403 464 25,000  Level Memphis Center
Thu 08:46:08 PM 37.0158 -87.0081 162° South 403 464 25,000  Level Memphis Center
Thu 08:47:08 PM 36.9144 -86.9553 157° South 403 464 25,000  Level Memphis Center
Thu 08:48:09 PM 36.8150 -86.9022 157° South 398 458 25,000  Level Memphis Center
Thu 08:49:08 PM 36.7114 -86.8500 158° South 398 458 25,000  Level Memphis Center
Thu 08:50:08 PM 36.6119 -86.7972 157° South 393 452 25,000  Level Memphis Center
Thu 08:51:08 PM 36.4978 -86.7406 158° South 393 452 25,000  Level Memphis Center
Thu 08:52:08 PM 36.3919 -86.6883 158° South 398 458 25,000  Level Memphis Center
Thu 08:53:08 PM 36.2778 -86.6319 158° South 420 483 25,000  Level Memphis Center
Thu 08:54:08 PM 36.1678 -86.5778 158° South 430 495 25,000  Level Memphis Center
Thu 08:55:08 PM 36.0556 -86.5214 158° South 430 495 25,000  Level Memphis Center
Thu 08:56:08 PM 35.9558 -86.4719 158° South 436 502 25,000  Level Memphis Center
Thu 08:58:22 PM 35.7031 -86.3328 156° South 436 502 25,000  Level Atlanta Center
Thu 08:59:22 PM 35.6025 -86.2533 147° Southeast 435 501 25,000  Level Atlanta Center
Thu 09:00:22 PM 35.5119 -86.1819 147° Southeast 440 506 25,000  Level Atlanta Center
Thu 09:01:22 PM 35.4089 -86.0978 146° Southeast 440 506 25,000  Level Atlanta Center
Thu 09:02:22 PM 35.3081 -86.0161 147° Southeast 440 506 25,000  Level Atlanta Center
Thu 09:03:22 PM 35.2050 -85.9375 148° Southeast 440 506 25,000  Level Atlanta Center
Thu 09:04:22 PM 35.0936 -85.8461 146° Southeast 440 506 25,000  Level Atlanta Center
Thu 09:05:22 PM 34.9925 -85.7653 147° Southeast 440 506 25,000  Level Atlanta Center
Thu 09:06:22 PM 34.8894 -85.6847 147° Southeast 440 506 25,000  Level Atlanta Center
Thu 09:07:22 PM 34.7881 -85.6069 148° Southeast 435 501 25,000  Level Atlanta Center
Thu 09:08:22 PM 34.6847 -85.5242 147° Southeast 435 501 25,000  Level Atlanta Center
Thu 09:09:22 PM 34.5814 -85.4442 147° Southeast 440 506 25,000 -950 Level Atlanta Center
Thu 09:10:22 PM 34.4800 -85.3667 148° Southeast 440 506 23,100 -2,250 Descending Atlanta Center
Thu 09:11:22 PM 34.3786 -85.2872 147° Southeast 440 506 20,500 -2,500 Descending Atlanta Center
Thu 09:12:22 PM 34.2811 -85.2153 149° Southeast 422 486 18,100 -2,300 Descending Atlanta Center
Thu 09:13:22 PM 34.1858 -85.1361 145° Southeast 412 474 15,900 -2,000 Descending Atlanta Center
Thu 09:14:22 PM 34.1136 -85.0575 138° Southeast 405 466 14,100 -1,000 Descending Atlanta Center
Thu 09:15:22 PM 34.0350 -84.9589 134° Southeast 400 460 13,900 -700 Descending Atlanta Center
Thu 09:16:22 PM 33.9606 -84.8603 132° Southeast 395 455 12,700 -1,000 Descending Atlanta Center
Thu 09:17:22 PM 33.8861 -84.7669 134° Southeast 395 455 11,900 -552 Descending Atlanta Center
Thu 09:17:49 PM 33.8500 -84.7167 131° Southeast 387 445 11,900  Level Atlanta TRACON
Thu 09:18:49 PM 33.7833 -84.6333 134° Southeast 324 373 11,900 -150 Level Atlanta TRACON
Thu 09:19:49 PM 33.7333 -84.5500 126° Southeast 282 325 11,600 -1,000 Descending Atlanta TRACON
Thu 09:20:49 PM 33.7333 -84.4667 90° East 272 313 9,900 -1,700 Descending Atlanta TRACON
Thu 09:21:49 PM 33.7333 -84.3833 90° East 261 300 8,200 -1,650 Descending Atlanta TRACON
Thu 09:22:49 PM 33.7333 -84.3000 90° East 240 276 6,600 -1,750 Descending Atlanta TRACON
Thu 09:23:49 PM 33.7167 -84.2167 103° East 240 276 4,700 -1,565 Descending Atlanta TRACON
Thu 09:24:44 PM 33.6667 -84.2500 209° Southwest 223 257 3,600 -1,200 Descending Atlanta TRACON

Login

Don't have an account? Register now (free) for customized features, flight alerts, and more!